sensor_id;sensor_type;location;lat;lon;timestamp;pressure;altitude;pressure_sealevel;temperature;humidity
36726;BME280;44936;52.086;5.150;2023-08-17T00:00:21;102883.81;;;17.91;100.00
36726;BME280;44936;52.086;5.150;2023-08-17T00:02:46;102891.81;;;17.94;100.00
36726;BME280;44936;52.086;5.150;2023-08-17T00:05:12;102902.44;;;18.02;100.00
36726;BME280;44936;52.086;5.150;2023-08-17T00:07:37;102906.84;;;17.95;100.00
36726;BME280;44936;52.086;5.150;2023-08-17T00:10:03;102892.66;;;17.92;100.00
36726;BME280;44936;52.086;5.150;2023-08-17T00:12:29;102860.69;;;17.75;100.00
36726;BME280;44936;52.086;5.150;2023-08-17T00:14:54;102872.25;;;17.81;100.00
36726;BME280;44936;52.086;5.150;2023-08-17T00:17:20;102888.22;;;17.91;100.00
36726;BME280;44936;52.086;5.150;2023-08-17T00:19:46;102867.81;;;17.76;100.00
36726;BME280;44936;52.086;5.150;2023-08-17T00:22:11;102878.44;;;17.77;100.00
36726;BME280;44936;52.086;5.150;2023-08-17T00:24:36;102889.09;;;17.85;100.00
36726;BME280;44936;52.086;5.150;2023-08-17T00:27:02;102869.56;;;17.75;100.00
36726;BME280;44936;52.086;5.150;2023-08-17T00:29:29;102869.50;;;17.69;100.00
36726;BME280;44936;52.086;5.150;2023-08-17T00:31:54;102871.38;;;17.79;100.00
36726;BME280;44936;52.086;5.150;2023-08-17T00:34:19;102876.66;;;17.81;100.00
36726;BME280;44936;52.086;5.150;2023-08-17T00:36:45;102864.25;;;17.74;100.00
36726;BME280;44936;52.086;5.150;2023-08-17T00:39:10;102846.47;;;17.61;100.00
36726;BME280;44936;52.086;5.150;2023-08-17T00:41:36;102874.91;;;17.81;100.00
36726;BME280;44936;52.086;5.150;2023-08-17T00:44:02;102868.69;;;17.76;100.00
36726;BME280;44936;52.086;5.150;2023-08-17T00:46:27;102829.66;;;17.59;100.00
36726;BME280;44936;52.086;5.150;2023-08-17T00:48:54;102861.63;;;17.80;100.00
36726;BME280;44936;52.086;5.150;2023-08-17T00:51:24;102836.72;;;17.63;100.00
36726;BME280;44936;52.086;5.150;2023-08-17T00:53:52;102840.25;;;17.59;100.00
36726;BME280;44936;52.086;5.150;2023-08-17T00:56:21;102872.16;;;17.69;100.00
36726;BME280;44936;52.086;5.150;2023-08-17T00:58:46;102880.16;;;17.71;100.00
36726;BME280;44936;52.086;5.150;2023-08-17T01:01:12;102865.03;;;17.62;100.00
36726;BME280;44936;52.086;5.150;2023-08-17T01:03:39;102869.47;;;17.62;100.00
36726;BME280;44936;52.086;5.150;2023-08-17T01:06:06;102832.16;;;17.39;100.00
36726;BME280;44936;52.086;5.150;2023-08-17T01:08:32;102842.00;;;17.56;100.00
36726;BME280;44936;52.086;5.150;2023-08-17T01:11:20;102840.16;;;17.45;100.00
36726;BME280;44936;52.086;5.150;2023-08-17T01:13:58;102860.56;;;17.50;100.00
36726;BME280;44936;52.086;5.150;2023-08-17T01:16:42;102873.78;;;17.49;100.00
36726;BME280;44936;52.086;5.150;2023-08-17T01:19:12;102855.25;;;17.53;100.00
36726;BME280;44936;52.086;5.150;2023-08-17T01:21:50;102828.63;;;17.38;100.00
36726;BME280;44936;52.086;5.150;2023-08-17T01:24:15;102856.09;;;17.48;100.00
36726;BME280;44936;52.086;5.150;2023-08-17T01:26:41;102813.53;;;17.30;100.00
36726;BME280;44936;52.086;5.150;2023-08-17T01:29:06;102840.16;;;17.45;100.00
36726;BME280;44936;52.086;5.150;2023-08-17T01:31:39;102856.09;;;17.48;100.00
36726;BME280;44936;52.086;5.150;2023-08-17T01:34:08;102790.50;;;17.21;100.00
36726;BME280;44936;52.086;5.150;2023-08-17T01:36:45;102818.88;;;17.36;100.00
36726;BME280;44936;52.086;5.150;2023-08-17T01:39:12;102798.38;;;17.13;100.00
36726;BME280;44936;52.086;5.150;2023-08-17T01:41:40;102806.38;;;17.16;100.00
36726;BME280;44936;52.086;5.150;2023-08-17T01:44:06;102839.16;;;17.27;100.00
36726;BME280;44936;52.086;5.150;2023-08-17T01:46:33;102852.47;;;17.34;100.00
36726;BME280;44936;52.086;5.150;2023-08-17T01:48:58;102859.56;;;17.38;100.00
36726;BME280;44936;52.086;5.150;2023-08-17T01:51:24;102836.56;;;17.37;100.00
36726;BME280;44936;52.086;5.150;2023-08-17T01:53:50;102840.09;;;17.36;100.00
36726;BME280;44936;52.086;5.150;2023-08-17T01:56:16;102816.13;;;17.17;100.00
36726;BME280;44936;52.086;5.150;2023-08-17T01:58:42;102858.66;;;17.33;100.00
36726;BME280;44936;52.086;5.150;2023-08-17T02:01:07;102831.06;;;17.11;100.00
36726;BME280;44936;52.086;5.150;2023-08-17T02:03:33;102847.06;;;17.21;100.00
36726;BME280;44936;52.086;5.150;2023-08-17T02:05:59;102868.41;;;17.37;100.00
36726;BME280;44936;52.086;5.150;2023-08-17T02:08:24;102882.59;;;17.42;100.00
36726;BME280;44936;52.086;5.150;2023-08-17T02:10:50;102850.66;;;17.30;100.00
36726;BME280;44936;52.086;5.150;2023-08-17T02:13:16;102854.25;;;17.32;100.00
36726;BME280;44936;52.086;5.150;2023-08-17T02:15:41;102875.53;;;17.42;100.00
36726;BME280;44936;52.086;5.150;2023-08-17T02:18:07;102858.66;;;17.33;100.00
36726;BME280;44936;52.086;5.150;2023-08-17T02:20:33;102879.91;;;17.39;100.00
36726;BME280;44936;52.086;5.150;2023-08-17T02:22:58;102876.41;;;17.41;100.00
36726;BME280;44936;52.086;5.150;2023-08-17T02:25:24;102868.38;;;17.34;100.00
36726;BME280;44936;52.086;5.150;2023-08-17T02:27:49;102854.13;;;17.22;100.00
36726;BME280;44936;52.086;5.150;2023-08-17T02:30:15;102858.66;;;17.34;100.00
36726;BME280;44936;52.086;5.150;2023-08-17T02:32:40;102855.97;;;17.26;100.00
36726;BME280;44936;52.086;5.150;2023-08-17T02:35:07;102870.19;;;17.38;100.00
36726;BME280;44936;52.086;5.150;2023-08-17T02:37:32;102862.22;;;17.36;100.00
36726;BME280;44936;52.086;5.150;2023-08-17T02:39:58;102821.41;;;17.19;100.00
36726;BME280;44936;52.086;5.150;2023-08-17T02:42:23;102841.00;;;17.38;100.00
36726;BME280;44936;52.086;5.150;2023-08-17T02:44:48;102840.09;;;17.33;100.00
36726;BME280;44936;52.086;5.150;2023-08-17T02:47:14;102807.28;;;17.17;100.00
36726;BME280;44936;52.086;5.150;2023-08-17T02:49:39;102825.84;;;17.17;100.00
36726;BME280;44936;52.086;5.150;2023-08-17T02:52:04;102836.44;;;17.15;100.00
36726;BME280;44936;52.086;5.150;2023-08-17T02:54:30;102839.09;;;17.21;100.00
36726;BME280;44936;52.086;5.150;2023-08-17T02:56:56;102858.66;;;17.36;100.00
36726;BME280;44936;52.086;5.150;2023-08-17T02:59:22;102860.44;;;17.32;100.00
36726;BME280;44936;52.086;5.150;2023-08-17T03:01:47;102868.34;;;17.31;100.00
36726;BME280;44936;52.086;5.150;2023-08-17T03:04:13;102841.75;;;17.21;100.00
36726;BME280;44936;52.086;5.150;2023-08-17T03:06:38;102854.19;;;17.28;100.00
36726;BME280;44936;52.086;5.150;2023-08-17T03:09:04;102840.94;;;17.30;100.00
36726;BME280;44936;52.086;5.150;2023-08-17T03:11:29;102856.03;;;17.39;100.00
36726;BME280;44936;52.086;5.150;2023-08-17T03:13:54;102851.66;;;17.41;100.00
36726;BME280;44936;52.086;5.150;2023-08-17T03:16:25;102847.22;;;17.44;100.00
36726;BME280;44936;52.086;5.150;2023-08-17T03:18:51;102834.75;;;17.30;100.00
36726;BME280;44936;52.086;5.150;2023-08-17T03:21:17;102855.13;;;17.38;100.00
36726;BME280;44936;52.086;5.150;2023-08-17T03:23:43;102831.22;;;17.27;100.00
36726;BME280;44936;52.086;5.150;2023-08-17T03:26:09;102843.69;;;17.41;100.00
36726;BME280;44936;52.086;5.150;2023-08-17T03:28:34;102843.66;;;17.38;100.00
36726;BME280;44936;52.086;5.150;2023-08-17T03:31:01;102847.19;;;17.35;100.00
36726;BME280;44936;52.086;5.150;2023-08-17T03:33:27;102857.75;;;17.31;100.00
36726;BME280;44936;52.086;5.150;2023-08-17T03:35:52;102858.63;;;17.31;100.00
36726;BME280;44936;52.086;5.150;2023-08-17T03:38:18;102863.91;;;17.30;100.00
36726;BME280;44936;52.086;5.150;2023-08-17T03:40:43;102841.81;;;17.24;100.00
36726;BME280;44936;52.086;5.150;2023-08-17T03:43:08;102851.53;;;17.30;100.00
36726;BME280;44936;52.086;5.150;2023-08-17T03:45:34;102847.94;;;17.22;100.00
36726;BME280;44936;52.086;5.150;2023-08-17T03:47:59;102842.69;;;17.23;100.00
36726;BME280;44936;52.086;5.150;2023-08-17T03:50:27;102844.41;;;17.21;100.00
36726;BME280;44936;52.086;5.150;2023-08-17T03:52:52;102847.09;;;17.24;100.00
36726;BME280;44936;52.086;5.150;2023-08-17T03:55:17;102839.09;;;17.21;100.00
36726;BME280;44936;52.086;5.150;2023-08-17T03:57:43;102851.47;;;17.16;100.00
36726;BME280;44936;52.086;5.150;2023-08-17T04:00:08;102857.66;;;17.17;100.00
36726;BME280;44936;52.086;5.150;2023-08-17T04:02:35;102852.34;;;17.20;100.00
36726;BME280;44936;52.086;5.150;2023-08-17T04:05:01;102858.56;;;17.20;100.00
36726;BME280;44936;52.086;5.150;2023-08-17T04:07:26;102854.94;;;17.09;100.00
36726;BME280;44936;52.086;5.150;2023-08-17T04:09:52;102851.47;;;17.15;100.00
36726;BME280;44936;52.086;5.150;2023-08-17T04:12:17;102862.03;;;17.13;100.00
36726;BME280;44936;52.086;5.150;2023-08-17T04:14:44;102866.44;;;17.10;100.00
36726;BME280;44936;52.086;5.150;2023-08-17T04:17:09;102854.94;;;17.09;100.00
36726;BME280;44936;52.086;5.150;2023-08-17T04:19:35;102834.56;;;17.04;100.00
36726;BME280;44936;52.086;5.150;2023-08-17T04:22:00;102860.28;;;17.15;100.00
36726;BME280;44936;52.086;5.150;2023-08-17T04:24:25;102839.03;;;17.08;100.00
36726;BME280;44936;52.086;5.150;2023-08-17T04:26:51;102808.91;;;16.98;100.00
36726;BME280;44936;52.086;5.150;2023-08-17T04:29:16;102834.69;;;17.19;100.00
36726;BME280;44936;52.086;5.150;2023-08-17T04:31:42;102800.91;;;16.95;100.00
36726;BME280;44936;52.086;5.150;2023-08-17T04:34:07;102836.31;;;17.05;100.00
36726;BME280;44936;52.086;5.150;2023-08-17T04:36:32;102850.53;;;17.13;100.00
36726;BME280;44936;52.086;5.150;2023-08-17T04:38:58;102850.50;;;17.08;100.00
36726;BME280;44936;52.086;5.150;2023-08-17T04:41:24;102820.28;;;16.86;100.00
36726;BME280;44936;52.086;5.150;2023-08-17T04:43:49;102856.69;;;17.07;100.00
36726;BME280;44936;52.086;5.150;2023-08-17T04:46:15;102847.81;;;17.04;100.00
36726;BME280;44936;52.086;5.150;2023-08-17T04:48:40;102853.97;;;17.01;100.00
36726;BME280;44936;52.086;5.150;2023-08-17T04:51:05;102833.56;;;16.89;100.00
36726;BME280;44936;52.086;5.150;2023-08-17T04:53:31;102853.03;;;16.94;100.00
36726;BME280;44936;52.086;5.150;2023-08-17T04:55:58;102848.66;;;16.96;100.00
36726;BME280;44936;52.086;5.150;2023-08-17T04:58:23;102849.56;;;17.03;100.00
36726;BME280;44936;52.086;5.150;2023-08-17T05:00:48;102845.19;;;17.05;100.00
36726;BME280;44936;52.086;5.150;2023-08-17T05:03:14;102807.00;;;16.85;100.00
36726;BME280;44936;52.086;5.150;2023-08-17T05:05:39;102824.88;;;17.06;100.00
36726;BME280;44936;52.086;5.150;2023-08-17T05:08:05;102836.38;;;17.08;100.00
36726;BME280;44936;52.086;5.150;2023-08-17T05:10:30;102830.13;;;17.04;100.00
36726;BME280;44936;52.086;5.150;2023-08-17T05:12:56;102837.25;;;17.11;100.00
36726;BME280;44936;52.086;5.150;2023-08-17T05:15:21;102835.47;;;17.06;100.00
36726;BME280;44936;52.086;5.150;2023-08-17T05:17:46;102840.75;;;17.04;100.00
36726;BME280;44936;52.086;5.150;2023-08-17T05:20:12;102856.75;;;17.15;100.00
36726;BME280;44936;52.086;5.150;2023-08-17T05:22:38;102837.25;;;17.08;100.00
36726;BME280;44936;52.086;5.150;2023-08-17T05:25:04;102843.53;;;17.19;100.00
36726;BME280;44936;52.086;5.150;2023-08-17T05:27:29;102827.59;;;17.16;100.00
36726;BME280;44936;52.086;5.150;2023-08-17T05:29:55;102840.94;;;17.27;100.00
36726;BME280;44936;52.086;5.150;2023-08-17T05:32:20;102840.88;;;17.21;100.00
36726;BME280;44936;52.086;5.150;2023-08-17T05:34:47;102839.22;;;17.32;100.00
36726;BME280;44936;52.086;5.150;2023-08-17T05:37:12;102834.78;;;17.33;100.00
36726;BME280;44936;52.086;5.150;2023-08-17T05:39:37;102801.91;;;17.12;100.00
36726;BME280;44936;52.086;5.150;2023-08-17T05:42:04;102819.63;;;17.15;100.00
36726;BME280;44936;52.086;5.150;2023-08-17T05:44:30;102848.84;;;17.22;100.00
36726;BME280;44936;52.086;5.150;2023-08-17T05:46:55;102858.69;;;17.37;100.00
36726;BME280;44936;52.086;5.150;2023-08-17T05:49:20;102843.66;;;17.36;100.00
36726;BME280;44936;52.086;5.150;2023-08-17T05:51:46;102850.75;;;17.42;100.00
36726;BME280;44936;52.086;5.150;2023-08-17T05:54:11;102811.69;;;17.19;100.00
36726;BME280;44936;52.086;5.150;2023-08-17T05:56:37;102863.16;;;17.46;100.00
36726;BME280;44936;52.086;5.150;2023-08-17T05:59:03;102870.22;;;17.44;100.00
36726;BME280;44936;52.086;5.150;2023-08-17T06:01:28;102839.09;;;17.15;100.00
36726;BME280;44936;52.086;5.150;2023-08-17T06:03:54;102887.03;;;17.44;100.00
36726;BME280;44936;52.086;5.150;2023-08-17T06:06:19;102886.19;;;17.50;100.00
36726;BME280;44936;52.086;5.150;2023-08-17T06:08:45;102878.13;;;17.36;100.00
36726;BME280;44936;52.086;5.150;2023-08-17T06:11:10;102868.41;;;17.40;100.00
36726;BME280;44936;52.086;5.150;2023-08-17T06:13:36;102857.72;;;17.27;100.00
36726;BME280;44936;52.086;5.150;2023-08-17T06:16:02;102886.19;;;17.50;100.00
36726;BME280;44936;52.086;5.150;2023-08-17T06:18:29;102877.38;;;17.54;100.00
36726;BME280;44936;52.086;5.150;2023-08-17T06:20:55;102820.66;;;17.32;100.00
36726;BME280;44936;52.086;5.150;2023-08-17T06:23:20;102878.28;;;17.61;100.00
36726;BME280;44936;52.086;5.150;2023-08-17T06:25:46;102887.19;;;17.67;100.00
36726;BME280;44936;52.086;5.150;2023-08-17T06:28:11;102883.63;;;17.62;100.00
36726;BME280;44936;52.086;5.150;2023-08-17T06:30:37;102894.22;;;17.65;100.00
36726;BME280;44936;52.086;5.150;2023-08-17T06:33:02;102897.81;;;17.69;100.00
36726;BME280;44936;52.086;5.150;2023-08-17T06:35:28;102849.91;;;17.49;100.00
36726;BME280;44936;52.086;5.150;2023-08-17T06:37:53;102904.06;;;17.72;100.00
36726;BME280;44936;52.086;5.150;2023-08-17T06:40:22;102894.38;;;17.79;100.00
36726;BME280;44936;52.086;5.150;2023-08-17T06:42:48;102895.28;;;17.86;100.00
36726;BME280;44936;52.086;5.150;2023-08-17T06:45:13;102884.69;;;17.87;100.00
36726;BME280;44936;52.086;5.150;2023-08-17T06:47:43;102885.56;;;17.88;100.00
36726;BME280;44936;52.086;5.150;2023-08-17T06:50:10;102903.31;;;17.98;100.00
36726;BME280;44936;52.086;5.150;2023-08-17T06:52:35;102909.56;;;18.07;100.00
36726;BME280;44936;52.086;5.150;2023-08-17T06:55:01;102909.56;;;18.10;100.00
36726;BME280;44936;52.086;5.150;2023-08-17T06:57:27;102910.44;;;18.09;100.00
36726;BME280;44936;52.086;5.150;2023-08-17T06:59:52;102889.16;;;17.97;100.00
36726;BME280;44936;52.086;5.150;2023-08-17T07:02:18;102902.47;;;18.05;100.00
36726;BME280;44936;52.086;5.150;2023-08-17T07:04:43;102890.06;;;18.04;100.00
36726;BME280;44936;52.086;5.150;2023-08-17T07:07:08;102913.19;;;18.22;100.00
36726;BME280;44936;52.086;5.150;2023-08-17T07:09:34;102877.66;;;17.98;100.00
36726;BME280;44936;52.086;5.150;2023-08-17T07:11:59;102911.41;;;18.22;100.00
36726;BME280;44936;52.086;5.150;2023-08-17T07:14:25;102892.81;;;18.25;100.00
36726;BME280;44936;52.086;5.150;2023-08-17T07:16:50;102909.66;;;18.36;100.00
36726;BME280;44936;52.086;5.150;2023-08-17T07:19:15;102910.56;;;18.37;100.00
36726;BME280;44936;52.086;5.150;2023-08-17T07:21:41;102920.31;;;18.43;100.00
36726;BME280;44936;52.086;5.150;2023-08-17T07:24:14;102925.63;;;18.38;100.00
36726;BME280;44936;52.086;5.150;2023-08-17T07:26:40;102916.75;;;18.37;100.00
36726;BME280;44936;52.086;5.150;2023-08-17T07:29:05;102912.34;;;18.39;100.00
36726;BME280;44936;52.086;5.150;2023-08-17T07:31:33;102911.50;;;18.50;100.00
36726;BME280;44936;52.086;5.150;2023-08-17T07:34:01;102897.28;;;18.45;100.00
36726;BME280;44936;52.086;5.150;2023-08-17T07:36:27;102907.97;;;18.55;100.00
36726;BME280;44936;52.086;5.150;2023-08-17T07:38:52;102925.75;;;18.65;100.00
36726;BME280;44936;52.086;5.150;2023-08-17T07:41:18;102920.47;;;18.73;100.00
36726;BME280;44936;52.086;5.150;2023-08-17T07:43:43;102920.47;;;18.82;100.00
36726;BME280;44936;52.086;5.150;2023-08-17T07:46:08;102915.13;;;18.81;100.00
36726;BME280;44936;52.086;5.150;2023-08-17T07:48:33;102917.84;;;18.94;100.00
36726;BME280;44936;52.086;5.150;2023-08-17T07:50:59;102895.66;;;18.89;100.00
36726;BME280;44936;52.086;5.150;2023-08-17T07:53:25;102911.63;;;19.05;100.00
36726;BME280;44936;52.086;5.150;2023-08-17T07:55:50;102914.31;;;19.00;100.00
36726;BME280;44936;52.086;5.150;2023-08-17T07:58:16;102901.84;;;18.88;100.00
36726;BME280;44936;52.086;5.150;2023-08-17T08:00:41;102893.88;;;18.73;100.00
36726;BME280;44936;52.086;5.150;2023-08-17T08:03:07;102913.38;;;18.84;100.00
36726;BME280;44936;52.086;5.150;2023-08-17T08:05:32;102917.81;;;18.84;100.00
36726;BME280;44936;52.086;5.150;2023-08-17T08:07:58;102902.75;;;18.75;100.00
36726;BME280;44936;52.086;5.150;2023-08-17T08:10:23;102905.41;;;18.77;100.00
36726;BME280;44936;52.086;5.150;2023-08-17T08:12:48;102912.47;;;18.81;100.00
36726;BME280;44936;52.086;5.150;2023-08-17T08:15:14;102897.41;;;18.78;100.00
36726;BME280;44936;52.086;5.150;2023-08-17T08:17:39;102895.63;;;18.79;100.00
36726;BME280;44936;52.086;5.150;2023-08-17T08:20:06;102900.06;;;18.77;100.00
36726;BME280;44936;52.086;5.150;2023-08-17T08:22:31;102885.00;;;18.70;100.00
36726;BME280;44936;52.086;5.150;2023-08-17T08:24:57;102896.53;;;18.81;100.00
36726;BME280;44936;52.086;5.150;2023-08-17T08:27:23;102888.56;;;18.82;100.00
36726;BME280;44936;52.086;5.150;2023-08-17T08:29:49;102895.66;;;18.83;100.00
36726;BME280;44936;52.086;5.150;2023-08-17T08:32:15;102898.34;;;18.91;100.00
36726;BME280;44936;52.086;5.150;2023-08-17T08:34:40;102875.28;;;18.94;100.00
36726;BME280;44936;52.086;5.150;2023-08-17T08:37:05;102881.50;;;19.00;100.00
36726;BME280;44936;52.086;5.150;2023-08-17T08:39:31;102879.69;;;18.99;100.00
36726;BME280;44936;52.086;5.150;2023-08-17T08:41:56;102888.56;;;19.07;100.00
36726;BME280;44936;52.086;5.150;2023-08-17T08:44:22;102879.69;;;19.08;100.00
36726;BME280;44936;52.086;5.150;2023-08-17T08:46:48;102885.06;;;19.09;100.00
36726;BME280;44936;52.086;5.150;2023-08-17T08:49:19;102891.25;;;19.19;100.00
36726;BME280;44936;52.086;5.150;2023-08-17T08:51:49;102894.81;;;19.35;100.00
36726;BME280;44936;52.086;5.150;2023-08-17T08:54:20;102891.22;;;19.45;100.00
36726;BME280;44936;52.086;5.150;2023-08-17T08:56:51;102884.09;;;19.51;100.00
36726;BME280;44936;52.086;5.150;2023-08-17T08:59:19;102883.22;;;19.60;100.00
36726;BME280;44936;52.086;5.150;2023-08-17T09:01:45;102882.34;;;19.70;100.00
36726;BME280;44936;52.086;5.150;2023-08-17T09:04:11;102882.31;;;19.75;100.00
36726;BME280;44936;52.086;5.150;2023-08-17T09:06:38;102872.53;;;19.85;100.00
36726;BME280;44936;52.086;5.150;2023-08-17T09:09:04;102879.59;;;19.93;100.00
36726;BME280;44936;52.086;5.150;2023-08-17T09:11:30;102858.28;;;19.98;100.00
36726;BME280;44936;52.086;5.150;2023-08-17T09:13:56;102879.53;;;20.15;100.00
36726;BME280;44936;52.086;5.150;2023-08-17T09:16:21;102878.59;;;20.23;100.00
36726;BME280;44936;52.086;5.150;2023-08-17T09:18:47;102874.13;;;20.33;100.00
36726;BME280;44936;52.086;5.150;2023-08-17T09:21:22;102864.34;;;20.30;100.00
36726;BME280;44936;52.086;5.150;2023-08-17T09:23:52;102880.28;;;20.50;100.00
36726;BME280;44936;52.086;5.150;2023-08-17T09:26:19;102874.88;;;20.56;100.00
36726;BME280;44936;52.086;5.150;2023-08-17T09:28:48;102868.72;;;20.51;100.00
36726;BME280;44936;52.086;5.150;2023-08-17T09:31:13;102857.13;;;20.54;100.00
36726;BME280;44936;52.086;5.150;2023-08-17T09:33:39;102865.06;;;20.64;100.00
36726;BME280;44936;52.086;5.150;2023-08-17T09:36:04;102852.53;;;20.76;100.00
36726;BME280;44936;52.086;5.150;2023-08-17T09:38:30;102850.72;;;20.81;100.00
36726;BME280;44936;52.086;5.150;2023-08-17T09:40:58;102840.09;;;20.78;100.00
36726;BME280;44936;52.086;5.150;2023-08-17T09:43:23;102840.03;;;20.82;100.00
36726;BME280;44936;52.086;5.150;2023-08-17T09:45:50;102849.78;;;20.86;100.00
36726;BME280;44936;52.086;5.150;2023-08-17T09:48:17;102855.03;;;20.97;100.00
36726;BME280;44936;52.086;5.150;2023-08-17T09:50:43;102852.25;;;21.09;100.00
36726;BME280;44936;52.086;5.150;2023-08-17T09:53:18;102858.41;;;21.17;100.00
36726;BME280;44936;52.086;5.150;2023-08-17T09:55:45;102851.22;;;21.29;100.00
36726;BME280;44936;52.086;5.150;2023-08-17T09:58:12;102839.56;;;21.37;100.00
36726;BME280;44936;52.086;5.150;2023-08-17T10:00:50;102823.47;;;21.45;100.00
36726;BME280;44936;52.086;5.150;2023-08-17T10:03:16;102818.00;;;21.57;100.00
36726;BME280;44936;52.086;5.150;2023-08-17T10:05:44;102804.63;;;21.59;100.00
36726;BME280;44936;52.086;5.150;2023-08-17T10:08:11;102786.88;;;21.53;100.00
36726;BME280;44936;52.086;5.150;2023-08-17T10:10:44;102786.78;;;21.62;100.00
36726;BME280;44936;52.086;5.150;2023-08-17T10:15:59;102815.09;;;21.77;100.00
36726;BME280;44936;52.086;5.150;2023-08-17T10:18:47;102820.38;;;21.83;100.00
36726;BME280;44936;52.086;5.150;2023-08-17T10:21:24;102812.25;;;21.92;100.00
36726;BME280;44936;52.086;5.150;2023-08-17T10:23:52;102785.63;;;21.82;100.00
36726;BME280;44936;52.086;5.150;2023-08-17T10:26:18;102773.34;;;21.68;100.00
36726;BME280;44936;52.086;5.150;2023-08-17T10:28:45;102804.25;;;21.89;100.00
36726;BME280;44936;52.086;5.150;2023-08-17T10:31:11;102789.97;;;21.93;100.00
36726;BME280;44936;52.086;5.150;2023-08-17T10:33:37;102781.97;;;21.90;100.00
36726;BME280;44936;52.086;5.150;2023-08-17T10:36:06;102790.88;;;21.89;100.00
36726;BME280;44936;52.086;5.150;2023-08-17T10:38:32;102797.06;;;21.94;100.00
36726;BME280;44936;52.086;5.150;2023-08-17T10:41:27;102782.84;;;21.92;100.00
36726;BME280;44936;52.086;5.150;2023-08-17T10:43:57;102792.53;;;21.98;100.00
36726;BME280;44936;52.086;5.150;2023-08-17T10:46:33;102779.41;;;21.83;100.00
36726;BME280;44936;52.086;5.150;2023-08-17T10:49:04;102775.66;;;21.96;100.00
36726;BME280;44936;52.086;5.150;2023-08-17T10:51:33;102779.13;;;22.02;100.00
36726;BME280;44936;52.086;5.150;2023-08-17T10:54:01;102763.25;;;21.90;100.00
36726;BME280;44936;52.086;5.150;2023-08-17T10:56:28;102789.25;;;21.79;100.00
36726;BME280;44936;52.086;5.150;2023-08-17T10:58:54;102810.50;;;21.87;100.00
36726;BME280;44936;52.086;5.150;2023-08-17T11:01:35;102810.38;;;21.97;100.00
36726;BME280;44936;52.086;5.150;2023-08-17T11:04:16;102803.22;;;21.98;100.00
36726;BME280;44936;52.086;5.150;2023-08-17T11:06:45;102805.81;;;22.05;100.00
36726;BME280;44936;52.086;5.150;2023-08-17T11:09:16;102782.09;;;21.80;100.00
36726;BME280;44936;52.086;5.150;2023-08-17T11:11:42;102790.94;;;21.86;100.00
36726;BME280;44936;52.086;5.150;2023-08-17T11:14:08;102816.59;;;21.98;100.00
36726;BME280;44936;52.086;5.150;2023-08-17T11:16:33;102824.72;;;21.92;100.00
36726;BME280;44936;52.086;5.150;2023-08-17T11:19:00;102821.00;;;22.03;100.00
36726;BME280;44936;52.086;5.150;2023-08-17T11:21:25;102757.94;;;21.89;100.00
36726;BME280;44936;52.086;5.150;2023-08-17T11:23:55;102773.06;;;21.91;100.00
36726;BME280;44936;52.086;5.150;2023-08-17T11:26:21;102765.03;;;21.90;100.00
36726;BME280;44936;52.086;5.150;2023-08-17T11:28:47;102776.50;;;21.99;100.00
36726;BME280;44936;52.086;5.150;2023-08-17T11:31:13;102790.66;;;22.06;100.00
36726;BME280;44936;52.086;5.150;2023-08-17T11:33:40;102787.09;;;22.07;100.00
36726;BME280;44936;52.086;5.150;2023-08-17T11:36:07;102796.97;;;22.02;100.00
36726;BME280;44936;52.086;5.150;2023-08-17T11:38:38;102807.56;;;22.08;100.00
36726;BME280;44936;52.086;5.150;2023-08-17T11:41:04;102788.88;;;22.10;100.00
36726;BME280;44936;52.086;5.150;2023-08-17T11:43:32;102788.00;;;22.09;100.00
36726;BME280;44936;52.086;5.150;2023-08-17T11:45:58;102775.63;;;21.97;100.00
36726;BME280;44936;52.086;5.150;2023-08-17T11:48:23;102832.50;;;22.12;100.00
36726;BME280;44936;52.086;5.150;2023-08-17T11:50:49;102783.53;;;22.05;100.00
36726;BME280;44936;52.086;5.150;2023-08-17T11:53:15;102791.72;;;21.94;100.00
36726;BME280;44936;52.086;5.150;2023-08-17T11:55:40;102750.09;;;21.76;100.00
36726;BME280;44936;52.086;5.150;2023-08-17T11:58:06;102816.69;;;21.90;100.00
36726;BME280;44936;52.086;5.150;2023-08-17T12:00:36;102792.72;;;21.86;100.00
36726;BME280;44936;52.086;5.150;2023-08-17T12:03:04;102806.88;;;21.94;100.00
36726;BME280;44936;52.086;5.150;2023-08-17T12:05:31;102761.66;;;21.78;100.00
36726;BME280;44936;52.086;5.150;2023-08-17T12:07:59;102794.38;;;21.96;100.00
36726;BME280;44936;52.086;5.150;2023-08-17T12:10:27;102772.31;;;21.80;100.00
36726;BME280;44936;52.086;5.150;2023-08-17T12:12:53;102775.75;;;21.91;100.00
36726;BME280;44936;52.086;5.150;2023-08-17T12:15:19;102743.16;;;21.65;100.00
36726;BME280;44936;52.086;5.150;2023-08-17T12:17:48;102782.00;;;21.89;100.00
36726;BME280;44936;52.086;5.150;2023-08-17T12:20:19;102791.75;;;21.90;100.00
36726;BME280;44936;52.086;5.150;2023-08-17T12:22:51;102749.16;;;21.82;100.00
36726;BME280;44936;52.086;5.150;2023-08-17T12:25:20;102750.72;;;21.97;100.00
36726;BME280;44936;52.086;5.150;2023-08-17T12:27:47;102762.25;;;21.99;100.00
36726;BME280;44936;52.086;5.150;2023-08-17T12:30:16;102779.97;;;22.06;100.00
36726;BME280;44936;52.086;5.150;2023-08-17T12:32:48;102779.00;;;22.15;100.00
36726;BME280;44936;52.086;5.150;2023-08-17T12:35:13;102768.25;;;22.16;100.00
36726;BME280;44936;52.086;5.150;2023-08-17T12:37:39;102758.53;;;22.12;100.00
36726;BME280;44936;52.086;5.150;2023-08-17T12:40:04;102744.94;;;22.29;100.00